sensor_id;sensor_type;location;lat;lon;timestamp;P1;durP1;ratioP1;P2;durP2;ratioP2
67037;SDS011;53940;53.204;6.590;2024-02-21T00:01:14;1.60;;;0.77;;
67037;SDS011;53940;53.204;6.590;2024-02-21T00:04:17;0.93;;;0.50;;
67037;SDS011;53940;53.204;6.590;2024-02-21T00:07:18;1.63;;;0.60;;
67037;SDS011;53940;53.204;6.590;2024-02-21T00:10:18;1.15;;;0.60;;
67037;SDS011;53940;53.204;6.590;2024-02-21T00:13:19;1.40;;;0.50;;
67037;SDS011;53940;53.204;6.590;2024-02-21T00:16:19;1.38;;;0.63;;
67037;SDS011;53940;53.204;6.590;2024-02-21T00:19:19;1.35;;;0.65;;
67037;SDS011;53940;53.204;6.590;2024-02-21T00:22:20;0.70;;;0.40;;
67037;SDS011;53940;53.204;6.590;2024-02-21T00:25:21;1.42;;;0.60;;
67037;SDS011;53940;53.204;6.590;2024-02-21T00:28:21;1.90;;;0.80;;
67037;SDS011;53940;53.204;6.590;2024-02-21T00:31:21;1.40;;;0.47;;
67037;SDS011;53940;53.204;6.590;2024-02-21T00:34:22;0.57;;;0.40;;
67037;SDS011;53940;53.204;6.590;2024-02-21T00:37:22;0.70;;;0.50;;
67037;SDS011;53940;53.204;6.590;2024-02-21T00:40:22;1.13;;;0.60;;
67037;SDS011;53940;53.204;6.590;2024-02-21T00:43:23;1.60;;;0.60;;
67037;SDS011;53940;53.204;6.590;2024-02-21T00:46:24;0.88;;;0.50;;
67037;SDS011;53940;53.204;6.590;2024-02-21T00:49:24;0.85;;;0.57;;
67037;SDS011;53940;53.204;6.590;2024-02-21T00:52:25;1.38;;;0.55;;
67037;SDS011;53940;53.204;6.590;2024-02-21T00:55:25;0.93;;;0.40;;
67037;SDS011;53940;53.204;6.590;2024-02-21T00:58:25;1.33;;;0.60;;
67037;SDS011;53940;53.204;6.590;2024-02-21T01:01:26;1.15;;;0.55;;
67037;SDS011;53940;53.204;6.590;2024-02-21T01:04:26;1.45;;;0.57;;
67037;SDS011;53940;53.204;6.590;2024-02-21T01:07:26;1.10;;;0.50;;
67037;SDS011;53940;53.204;6.590;2024-02-21T01:10:27;1.13;;;0.40;;
67037;SDS011;53940;53.204;6.590;2024-02-21T01:13:27;1.85;;;0.55;;
67037;SDS011;53940;53.204;6.590;2024-02-21T01:16:27;0.93;;;0.50;;
67037;SDS011;53940;53.204;6.590;2024-02-21T01:19:28;1.00;;;0.55;;
67037;SDS011;53940;53.204;6.590;2024-02-21T01:22:28;1.52;;;0.70;;
67037;SDS011;53940;53.204;6.590;2024-02-21T01:25:29;1.40;;;0.40;;
67037;SDS011;53940;53.204;6.590;2024-02-21T01:28:29;1.30;;;0.52;;
67037;SDS011;53940;53.204;6.590;2024-02-21T01:31:30;1.25;;;0.50;;
67037;SDS011;53940;53.204;6.590;2024-02-21T01:34:31;1.67;;;0.60;;
67037;SDS011;53940;53.204;6.590;2024-02-21T01:37:31;0.95;;;0.60;;
67037;SDS011;53940;53.204;6.590;2024-02-21T01:40:31;0.90;;;0.50;;
67037;SDS011;53940;53.204;6.590;2024-02-21T01:43:32;1.05;;;0.50;;
67037;SDS011;53940;53.204;6.590;2024-02-21T01:46:32;1.63;;;0.70;;
67037;SDS011;53940;53.204;6.590;2024-02-21T01:49:33;0.90;;;0.50;;
67037;SDS011;53940;53.204;6.590;2024-02-21T01:52:33;0.95;;;0.30;;
67037;SDS011;53940;53.204;6.590;2024-02-21T01:55:35;1.45;;;0.50;;
67037;SDS011;53940;53.204;6.590;2024-02-21T01:58:36;1.25;;;0.60;;
67037;SDS011;53940;53.204;6.590;2024-02-21T02:01:37;1.35;;;0.50;;
67037;SDS011;53940;53.204;6.590;2024-02-21T02:04:38;1.15;;;0.50;;
67037;SDS011;53940;53.204;6.590;2024-02-21T02:07:38;0.95;;;0.50;;
67037;SDS011;53940;53.204;6.590;2024-02-21T02:10:39;1.38;;;0.47;;
67037;SDS011;53940;53.204;6.590;2024-02-21T02:13:40;1.17;;;0.40;;
67037;SDS011;53940;53.204;6.590;2024-02-21T02:16:40;1.17;;;0.50;;
67037;SDS011;53940;53.204;6.590;2024-02-21T02:19:41;1.00;;;0.40;;
67037;SDS011;53940;53.204;6.590;2024-02-21T02:22:41;0.98;;;0.43;;
67037;SDS011;53940;53.204;6.590;2024-02-21T02:25:43;1.00;;;0.40;;
67037;SDS011;53940;53.204;6.590;2024-02-21T02:28:44;1.00;;;0.40;;
67037;SDS011;53940;53.204;6.590;2024-02-21T02:31:44;1.08;;;0.40;;
67037;SDS011;53940;53.204;6.590;2024-02-21T02:34:44;0.63;;;0.40;;
67037;SDS011;53940;53.204;6.590;2024-02-21T02:37:49;1.17;;;0.50;;
67037;SDS011;53940;53.204;6.590;2024-02-21T02:40:50;0.70;;;0.40;;
67037;SDS011;53940;53.204;6.590;2024-02-21T02:43:50;1.02;;;0.47;;
67037;SDS011;53940;53.204;6.590;2024-02-21T02:46:50;1.52;;;0.55;;
67037;SDS011;53940;53.204;6.590;2024-02-21T02:49:51;0.95;;;0.43;;
67037;SDS011;53940;53.204;6.590;2024-02-21T02:52:51;0.63;;;0.40;;
67037;SDS011;53940;53.204;6.590;2024-02-21T02:55:52;0.95;;;0.40;;
67037;SDS011;53940;53.204;6.590;2024-02-21T02:58:52;0.98;;;0.40;;
67037;SDS011;53940;53.204;6.590;2024-02-21T03:01:52;2.15;;;0.63;;
67037;SDS011;53940;53.204;6.590;2024-02-21T03:04:53;1.42;;;0.50;;
67037;SDS011;53940;53.204;6.590;2024-02-21T03:07:53;0.68;;;0.40;;
67037;SDS011;53940;53.204;6.590;2024-02-21T03:10:53;2.28;;;0.60;;
67037;SDS011;53940;53.204;6.590;2024-02-21T03:13:54;1.13;;;0.40;;
67037;SDS011;53940;53.204;6.590;2024-02-21T03:16:57;1.27;;;0.60;;
67037;SDS011;53940;53.204;6.590;2024-02-21T03:19:58;1.08;;;0.47;;
67037;SDS011;53940;53.204;6.590;2024-02-21T03:23:00;1.00;;;0.40;;
67037;SDS011;53940;53.204;6.590;2024-02-21T03:26:00;0.93;;;0.43;;
67037;SDS011;53940;53.204;6.590;2024-02-21T03:29:00;1.27;;;0.40;;
67037;SDS011;53940;53.204;6.590;2024-02-21T03:32:01;1.10;;;0.40;;
67037;SDS011;53940;53.204;6.590;2024-02-21T03:35:01;1.70;;;0.60;;
67037;SDS011;53940;53.204;6.590;2024-02-21T03:38:01;1.10;;;0.50;;
67037;SDS011;53940;53.204;6.590;2024-02-21T03:41:02;0.77;;;0.40;;
67037;SDS011;53940;53.204;6.590;2024-02-21T03:44:02;1.67;;;0.57;;
67037;SDS011;53940;53.204;6.590;2024-02-21T03:47:03;0.90;;;0.32;;
67037;SDS011;53940;53.204;6.590;2024-02-21T03:50:03;1.70;;;0.50;;
67037;SDS011;53940;53.204;6.590;2024-02-21T03:53:05;0.88;;;0.40;;
67037;SDS011;53940;53.204;6.590;2024-02-21T03:56:05;1.40;;;0.60;;
67037;SDS011;53940;53.204;6.590;2024-02-21T03:59:06;1.35;;;0.50;;
67037;SDS011;53940;53.204;6.590;2024-02-21T04:02:07;1.20;;;0.50;;
67037;SDS011;53940;53.204;6.590;2024-02-21T04:05:08;1.40;;;0.60;;
67037;SDS011;53940;53.204;6.590;2024-02-21T04:08:11;1.23;;;0.40;;
67037;SDS011;53940;53.204;6.590;2024-02-21T04:11:11;0.95;;;0.50;;
67037;SDS011;53940;53.204;6.590;2024-02-21T04:14:11;0.80;;;0.40;;
67037;SDS011;53940;53.204;6.590;2024-02-21T04:17:12;1.25;;;0.50;;
67037;SDS011;53940;53.204;6.590;2024-02-21T04:20:15;1.20;;;0.50;;
67037;SDS011;53940;53.204;6.590;2024-02-21T04:23:16;1.10;;;0.40;;
67037;SDS011;53940;53.204;6.590;2024-02-21T04:26:16;1.10;;;0.45;;
67037;SDS011;53940;53.204;6.590;2024-02-21T04:29:17;1.38;;;0.50;;
67037;SDS011;53940;53.204;6.590;2024-02-21T04:32:17;1.30;;;0.50;;
67037;SDS011;53940;53.204;6.590;2024-02-21T04:35:17;1.58;;;0.52;;
67037;SDS011;53940;53.204;6.590;2024-02-21T04:38:18;1.58;;;0.55;;
67037;SDS011;53940;53.204;6.590;2024-02-21T04:41:18;1.17;;;0.40;;
67037;SDS011;53940;53.204;6.590;2024-02-21T04:44:19;1.38;;;0.50;;
67037;SDS011;53940;53.204;6.590;2024-02-21T04:47:22;1.42;;;0.63;;
67037;SDS011;53940;53.204;6.590;2024-02-21T04:50:25;1.23;;;0.50;;
67037;SDS011;53940;53.204;6.590;2024-02-21T04:53:26;1.35;;;0.65;;
67037;SDS011;53940;53.204;6.590;2024-02-21T04:56:26;1.27;;;0.50;;
67037;SDS011;53940;53.204;6.590;2024-02-21T04:59:26;1.65;;;0.95;;
67037;SDS011;53940;53.204;6.590;2024-02-21T05:02:27;1.20;;;0.47;;
67037;SDS011;53940;53.204;6.590;2024-02-21T05:05:27;2.17;;;0.52;;
67037;SDS011;53940;53.204;6.590;2024-02-21T05:08:27;1.70;;;0.57;;
67037;SDS011;53940;53.204;6.590;2024-02-21T05:11:27;1.00;;;0.40;;
67037;SDS011;53940;53.204;6.590;2024-02-21T05:14:28;1.02;;;0.40;;
67037;SDS011;53940;53.204;6.590;2024-02-21T05:17:28;1.65;;;0.65;;
67037;SDS011;53940;53.204;6.590;2024-02-21T05:20:28;0.80;;;0.50;;
67037;SDS011;53940;53.204;6.590;2024-02-21T05:23:29;1.10;;;0.50;;
67037;SDS011;53940;53.204;6.590;2024-02-21T05:26:29;1.75;;;0.60;;
67037;SDS011;53940;53.204;6.590;2024-02-21T05:29:30;3.35;;;0.60;;
67037;SDS011;53940;53.204;6.590;2024-02-21T05:32:30;1.33;;;0.60;;
67037;SDS011;53940;53.204;6.590;2024-02-21T05:35:30;1.45;;;0.50;;
67037;SDS011;53940;53.204;6.590;2024-02-21T05:38:31;1.38;;;0.60;;
67037;SDS011;53940;53.204;6.590;2024-02-21T05:41:31;1.48;;;0.80;;
67037;SDS011;53940;53.204;6.590;2024-02-21T05:44:32;1.27;;;0.55;;
67037;SDS011;53940;53.204;6.590;2024-02-21T05:47:32;1.38;;;0.60;;
67037;SDS011;53940;53.204;6.590;2024-02-21T05:50:32;1.23;;;0.60;;
67037;SDS011;53940;53.204;6.590;2024-02-21T05:53:33;1.73;;;0.43;;
67037;SDS011;53940;53.204;6.590;2024-02-21T05:56:33;1.73;;;0.60;;
67037;SDS011;53940;53.204;6.590;2024-02-21T05:59:34;1.73;;;0.70;;
67037;SDS011;53940;53.204;6.590;2024-02-21T06:02:36;1.13;;;0.57;;
67037;SDS011;53940;53.204;6.590;2024-02-21T06:05:37;2.00;;;0.63;;
67037;SDS011;53940;53.204;6.590;2024-02-21T06:08:39;1.35;;;0.50;;
67037;SDS011;53940;53.204;6.590;2024-02-21T06:11:40;2.17;;;0.60;;
67037;SDS011;53940;53.204;6.590;2024-02-21T06:14:40;1.10;;;0.60;;
67037;SDS011;53940;53.204;6.590;2024-02-21T06:17:40;1.38;;;0.50;;
67037;SDS011;53940;53.204;6.590;2024-02-21T06:20:41;1.80;;;0.68;;
67037;SDS011;53940;53.204;6.590;2024-02-21T06:23:41;1.35;;;0.50;;
67037;SDS011;53940;53.204;6.590;2024-02-21T06:26:42;2.40;;;0.80;;
67037;SDS011;53940;53.204;6.590;2024-02-21T06:29:43;1.17;;;0.47;;
67037;SDS011;53940;53.204;6.590;2024-02-21T06:32:43;1.70;;;0.60;;
67037;SDS011;53940;53.204;6.590;2024-02-21T06:35:43;1.52;;;0.40;;
67037;SDS011;53940;53.204;6.590;2024-02-21T06:38:47;1.23;;;0.57;;
67037;SDS011;53940;53.204;6.590;2024-02-21T06:41:47;1.73;;;0.52;;
67037;SDS011;53940;53.204;6.590;2024-02-21T06:44:48;1.23;;;0.57;;
67037;SDS011;53940;53.204;6.590;2024-02-21T06:47:48;1.60;;;0.43;;
67037;SDS011;53940;53.204;6.590;2024-02-21T06:50:48;1.83;;;0.70;;
67037;SDS011;53940;53.204;6.590;2024-02-21T06:53:49;0.93;;;0.50;;
67037;SDS011;53940;53.204;6.590;2024-02-21T06:56:49;1.45;;;0.50;;
67037;SDS011;53940;53.204;6.590;2024-02-21T06:59:49;1.58;;;0.65;;
67037;SDS011;53940;53.204;6.590;2024-02-21T07:02:50;2.33;;;0.70;;
67037;SDS011;53940;53.204;6.590;2024-02-21T07:05:50;2.03;;;0.70;;
67037;SDS011;53940;53.204;6.590;2024-02-21T07:08:50;1.13;;;0.52;;
67037;SDS011;53940;53.204;6.590;2024-02-21T07:11:51;1.35;;;0.40;;
67037;SDS011;53940;53.204;6.590;2024-02-21T07:14:51;1.48;;;0.65;;
67037;SDS011;53940;53.204;6.590;2024-02-21T07:17:52;1.33;;;0.55;;
67037;SDS011;53940;53.204;6.590;2024-02-21T07:20:53;2.22;;;0.60;;
67037;SDS011;53940;53.204;6.590;2024-02-21T07:23:53;1.13;;;0.45;;
67037;SDS011;53940;53.204;6.590;2024-02-21T07:26:53;1.98;;;0.60;;
67037;SDS011;53940;53.204;6.590;2024-02-21T07:29:54;2.50;;;0.88;;
67037;SDS011;53940;53.204;6.590;2024-02-21T07:32:54;1.33;;;0.50;;
67037;SDS011;53940;53.204;6.590;2024-02-21T07:35:54;2.22;;;1.00;;
67037;SDS011;53940;53.204;6.590;2024-02-21T07:38:55;1.58;;;0.45;;
67037;SDS011;53940;53.204;6.590;2024-02-21T07:41:55;1.85;;;0.65;;
67037;SDS011;53940;53.204;6.590;2024-02-21T07:44:55;1.70;;;0.50;;
67037;SDS011;53940;53.204;6.590;2024-02-21T07:47:56;0.75;;;0.43;;
67037;SDS011;53940;53.204;6.590;2024-02-21T07:50:57;1.50;;;0.80;;
67037;SDS011;53940;53.204;6.590;2024-02-21T07:53:57;1.00;;;0.40;;
67037;SDS011;53940;53.204;6.590;2024-02-21T07:56:57;1.38;;;0.50;;
67037;SDS011;53940;53.204;6.590;2024-02-21T07:59:58;1.27;;;0.52;;
67037;SDS011;53940;53.204;6.590;2024-02-21T08:02:58;1.45;;;0.60;;
67037;SDS011;53940;53.204;6.590;2024-02-21T08:05:58;1.42;;;0.57;;
67037;SDS011;53940;53.204;6.590;2024-02-21T08:08:59;1.40;;;0.60;;
67037;SDS011;53940;53.204;6.590;2024-02-21T08:12:00;3.08;;;0.50;;
67037;SDS011;53940;53.204;6.590;2024-02-21T08:15:01;0.77;;;0.40;;
67037;SDS011;53940;53.204;6.590;2024-02-21T08:18:03;1.42;;;0.57;;
67037;SDS011;53940;53.204;6.590;2024-02-21T08:21:04;1.65;;;0.57;;
67037;SDS011;53940;53.204;6.590;2024-02-21T08:24:04;1.92;;;0.43;;
67037;SDS011;53940;53.204;6.590;2024-02-21T08:27:05;1.67;;;0.70;;
67037;SDS011;53940;53.204;6.590;2024-02-21T08:30:06;1.48;;;0.47;;
67037;SDS011;53940;53.204;6.590;2024-02-21T08:33:07;2.22;;;0.73;;
67037;SDS011;53940;53.204;6.590;2024-02-21T08:36:08;1.40;;;0.50;;
67037;SDS011;53940;53.204;6.590;2024-02-21T08:39:08;1.35;;;0.50;;
67037;SDS011;53940;53.204;6.590;2024-02-21T08:42:09;1.40;;;0.70;;
67037;SDS011;53940;53.204;6.590;2024-02-21T08:45:09;2.05;;;0.70;;
67037;SDS011;53940;53.204;6.590;2024-02-21T08:48:10;1.75;;;0.63;;
67037;SDS011;53940;53.204;6.590;2024-02-21T08:51:11;0.85;;;0.50;;
67037;SDS011;53940;53.204;6.590;2024-02-21T08:54:11;1.80;;;0.70;;
67037;SDS011;53940;53.204;6.590;2024-02-21T08:57:12;1.92;;;0.47;;
67037;SDS011;53940;53.204;6.590;2024-02-21T09:00:14;1.85;;;0.57;;
67037;SDS011;53940;53.204;6.590;2024-02-21T09:03:15;2.30;;;0.60;;
67037;SDS011;53940;53.204;6.590;2024-02-21T09:06:15;2.33;;;0.73;;
67037;SDS011;53940;53.204;6.590;2024-02-21T09:09:15;1.55;;;0.68;;
67037;SDS011;53940;53.204;6.590;2024-02-21T09:12:16;1.45;;;0.60;;
67037;SDS011;53940;53.204;6.590;2024-02-21T09:15:16;1.50;;;0.57;;
67037;SDS011;53940;53.204;6.590;2024-02-21T09:18:16;0.93;;;0.50;;
67037;SDS011;53940;53.204;6.590;2024-02-21T09:21:17;1.70;;;0.50;;
67037;SDS011;53940;53.204;6.590;2024-02-21T09:24:17;1.55;;;0.40;;
67037;SDS011;53940;53.204;6.590;2024-02-21T09:27:17;1.38;;;0.50;;
67037;SDS011;53940;53.204;6.590;2024-02-21T09:30:18;1.58;;;0.50;;
67037;SDS011;53940;53.204;6.590;2024-02-21T09:33:19;1.30;;;0.50;;
67037;SDS011;53940;53.204;6.590;2024-02-21T09:36:19;2.63;;;0.70;;
67037;SDS011;53940;53.204;6.590;2024-02-21T09:39:21;1.10;;;0.45;;
67037;SDS011;53940;53.204;6.590;2024-02-21T09:42:21;1.38;;;0.55;;
67037;SDS011;53940;53.204;6.590;2024-02-21T09:45:26;1.85;;;0.50;;
67037;SDS011;53940;53.204;6.590;2024-02-21T09:51:42;1.55;;;0.40;;
67037;SDS011;53940;53.204;6.590;2024-02-21T09:54:45;1.85;;;0.50;;
67037;SDS011;53940;53.204;6.590;2024-02-21T09:57:45;1.38;;;0.60;;
67037;SDS011;53940;53.204;6.590;2024-02-21T10:00:47;1.30;;;0.60;;
67037;SDS011;53940;53.204;6.590;2024-02-21T10:03:47;1.17;;;0.43;;
67037;SDS011;53940;53.204;6.590;2024-02-21T10:06:48;1.40;;;0.77;;
67037;SDS011;53940;53.204;6.590;2024-02-21T10:09:48;1.30;;;0.50;;
67037;SDS011;53940;53.204;6.590;2024-02-21T10:12:49;2.67;;;0.55;;
67037;SDS011;53940;53.204;6.590;2024-02-21T10:16:00;0.93;;;0.52;;
67037;SDS011;53940;53.204;6.590;2024-02-21T10:19:01;0.75;;;0.43;;
67037;SDS011;53940;53.204;6.590;2024-02-21T10:22:04;0.80;;;0.40;;
67037;SDS011;53940;53.204;6.590;2024-02-21T10:25:10;0.88;;;0.43;;
67037;SDS011;53940;53.204;6.590;2024-02-21T10:28:12;1.27;;;0.50;;
67037;SDS011;53940;53.204;6.590;2024-02-21T10:31:22;1.27;;;0.50;;
67037;SDS011;53940;53.204;6.590;2024-02-21T10:34:27;0.82;;;0.57;;
67037;SDS011;53940;53.204;6.590;2024-02-21T10:37:27;1.35;;;0.60;;
67037;SDS011;53940;53.204;6.590;2024-02-21T10:40:28;1.80;;;0.50;;
67037;SDS011;53940;53.204;6.590;2024-02-21T10:43:31;0.70;;;0.35;;
67037;SDS011;53940;53.204;6.590;2024-02-21T10:46:38;1.27;;;0.60;;
67037;SDS011;53940;53.204;6.590;2024-02-21T10:49:39;0.73;;;0.40;;
67037;SDS011;53940;53.204;6.590;2024-02-21T10:52:48;1.50;;;0.47;;
67037;SDS011;53940;53.204;6.590;2024-02-21T10:56:09;1.20;;;0.50;;
67037;SDS011;53940;53.204;6.590;2024-02-21T10:59:16;1.63;;;0.45;;
67037;SDS011;53940;53.204;6.590;2024-02-21T11:02:17;1.92;;;0.65;;
67037;SDS011;53940;53.204;6.590;2024-02-21T11:05:17;1.73;;;0.57;;
67037;SDS011;53940;53.204;6.590;2024-02-21T11:08:18;1.42;;;0.60;;
67037;SDS011;53940;53.204;6.590;2024-02-21T11:11:19;0.95;;;0.40;;
67037;SDS011;53940;53.204;6.590;2024-02-21T11:14:25;0.90;;;0.50;;
67037;SDS011;53940;53.204;6.590;2024-02-21T11:17:27;0.40;;;0.30;;
67037;SDS011;53940;53.204;6.590;2024-02-21T11:20:34;4.90;;;0.52;;
67037;SDS011;53940;53.204;6.590;2024-02-21T11:23:36;1.98;;;0.50;;
67037;SDS011;53940;53.204;6.590;2024-02-21T11:26:37;1.15;;;0.45;;
67037;SDS011;53940;53.204;6.590;2024-02-21T11:29:44;1.35;;;0.55;;
67037;SDS011;53940;53.204;6.590;2024-02-21T11:32:58;2.20;;;0.50;;
67037;SDS011;53940;53.204;6.590;2024-02-21T11:35:59;1.88;;;0.50;;
67037;SDS011;53940;53.204;6.590;2024-02-21T11:39:03;1.27;;;0.50;;
67037;SDS011;53940;53.204;6.590;2024-02-21T11:42:06;1.27;;;0.52;;
67037;SDS011;53940;53.204;6.590;2024-02-21T11:45:10;1.00;;;0.40;;
67037;SDS011;53940;53.204;6.590;2024-02-21T11:48:11;1.70;;;0.45;;
67037;SDS011;53940;53.204;6.590;2024-02-21T11:51:11;1.40;;;0.40;;
67037;SDS011;53940;53.204;6.590;2024-02-21T11:54:21;0.93;;;0.50;;
67037;SDS011;53940;53.204;6.590;2024-02-21T11:57:21;1.10;;;0.50;;
67037;SDS011;53940;53.204;6.590;2024-02-21T12:00:22;1.77;;;0.40;;
67037;SDS011;53940;53.204;6.590;2024-02-21T12:03:24;1.13;;;0.50;;
67037;SDS011;53940;53.204;6.590;2024-02-21T12:06:24;1.52;;;0.52;;
67037;SDS011;53940;53.204;6.590;2024-02-21T12:09:25;1.13;;;0.60;;
67037;SDS011;53940;53.204;6.590;2024-02-21T12:12:25;1.20;;;0.40;;
67037;SDS011;53940;53.204;6.590;2024-02-21T12:15:27;2.10;;;0.70;;
67037;SDS011;53940;53.204;6.590;2024-02-21T12:18:27;2.22;;;0.60;;
67037;SDS011;53940;53.204;6.590;2024-02-21T12:21:35;4.03;;;1.77;;
67037;SDS011;53940;53.204;6.590;2024-02-21T12:24:38;4.78;;;2.63;;
67037;SDS011;53940;53.204;6.590;2024-02-21T12:27:39;4.65;;;1.90;;
67037;SDS011;53940;53.204;6.590;2024-02-21T12:30:40;3.70;;;2.03;;
67037;SDS011;53940;53.204;6.590;2024-02-21T12:33:43;4.63;;;2.00;;
67037;SDS011;53940;53.204;6.590;2024-02-21T12:36:44;2.95;;;1.90;;
67037;SDS011;53940;53.204;6.590;2024-02-21T12:39:48;3.65;;;1.80;;
67037;SDS011;53940;53.204;6.590;2024-02-21T12:42:48;2.85;;;1.80;;
67037;SDS011;53940;53.204;6.590;2024-02-21T12:45:48;3.17;;;1.52;;
67037;SDS011;53940;53.204;6.590;2024-02-21T12:48:49;2.90;;;1.70;;
67037;SDS011;53940;53.204;6.590;2024-02-21T12:51:50;3.67;;;1.80;;
67037;SDS011;53940;53.204;6.590;2024-02-21T12:54:50;3.97;;;1.50;;
67037;SDS011;53940;53.204;6.590;2024-02-21T12:57:51;3.15;;;1.60;;
67037;SDS011;53940;53.204;6.590;2024-02-21T13:00:52;3.47;;;1.65;;
67037;SDS011;53940;53.204;6.590;2024-02-21T13:03:53;3.08;;;1.40;;
67037;SDS011;53940;53.204;6.590;2024-02-21T13:06:57;3.83;;;1.58;;
67037;SDS011;53940;53.204;6.590;2024-02-21T13:09:58;2.38;;;1.40;;
67037;SDS011;53940;53.204;6.590;2024-02-21T13:12:58;2.92;;;1.38;;
67037;SDS011;53940;53.204;6.590;2024-02-21T13:15:59;3.08;;;1.30;;
67037;SDS011;53940;53.204;6.590;2024-02-21T13:18:59;2.65;;;1.40;;
67037;SDS011;53940;53.204;6.590;2024-02-21T13:22:00;2.58;;;1.48;;
67037;SDS011;53940;53.204;6.590;2024-02-21T13:25:00;4.40;;;1.10;;
67037;SDS011;53940;53.204;6.590;2024-02-21T13:28:01;2.55;;;1.35;;
67037;SDS011;53940;53.204;6.590;2024-02-21T13:31:03;2.58;;;1.30;;
67037;SDS011;53940;53.204;6.590;2024-02-21T13:34:03;2.38;;;1.30;;
67037;SDS011;53940;53.204;6.590;2024-02-21T13:37:04;2.60;;;1.48;;
67037;SDS011;53940;53.204;6.590;2024-02-21T13:40:07;2.63;;;1.13;;
67037;SDS011;53940;53.204;6.590;2024-02-21T13:43:10;2.75;;;1.17;;
67037;SDS011;53940;53.204;6.590;2024-02-21T13:46:12;2.40;;;1.10;;
67037;SDS011;53940;53.204;6.590;2024-02-21T13:49:12;2.40;;;1.10;;
67037;SDS011;53940;53.204;6.590;2024-02-21T13:52:13;2.10;;;1.27;;
67037;SDS011;53940;53.204;6.590;2024-02-21T13:55:14;2.33;;;1.20;;
67037;SDS011;53940;53.204;6.590;2024-02-21T13:58:15;1.90;;;1.00;;
67037;SDS011;53940;53.204;6.590;2024-02-21T14:01:15;2.45;;;1.20;;
67037;SDS011;53940;53.204;6.590;2024-02-21T14:04:16;1.70;;;1.00;;
67037;SDS011;53940;53.204;6.590;2024-02-21T14:07:16;2.03;;;1.00;;
67037;SDS011;53940;53.204;6.590;2024-02-21T14:10:17;2.15;;;0.98;;
67037;SDS011;53940;53.204;6.590;2024-02-21T14:13:18;2.28;;;1.10;;
67037;SDS011;53940;53.204;6.590;2024-02-21T14:16:19;2.42;;;1.10;;
67037;SDS011;53940;53.204;6.590;2024-02-21T14:19:19;2.20;;;1.10;;
67037;SDS011;53940;53.204;6.590;2024-02-21T14:22:19;3.40;;;1.20;;
67037;SDS011;53940;53.204;6.590;2024-02-21T14:25:20;3.10;;;1.13;;
67037;SDS011;53940;53.204;6.590;2024-02-21T14:28:20;2.90;;;1.17;;
67037;SDS011;53940;53.204;6.590;2024-02-21T14:31:20;2.28;;;1.00;;
67037;SDS011;53940;53.204;6.590;2024-02-21T14:34:21;1.65;;;1.00;;
67037;SDS011;53940;53.204;6.590;2024-02-21T14:37:21;1.65;;;1.00;;
67037;SDS011;53940;53.204;6.590;2024-02-21T14:40:21;2.08;;;1.10;;
67037;SDS011;53940;53.204;6.590;2024-02-21T14:43:22;2.30;;;1.08;;
67037;SDS011;53940;53.204;6.590;2024-02-21T14:46:22;1.58;;;1.00;;
67037;SDS011;53940;53.204;6.590;2024-02-21T14:49:22;1.60;;;0.80;;
67037;SDS011;53940;53.204;6.590;2024-02-21T14:52:25;1.50;;;0.85;;
67037;SDS011;53940;53.204;6.590;2024-02-21T14:55:27;1.42;;;0.90;;
67037;SDS011;53940;53.204;6.590;2024-02-21T14:58:27;1.65;;;0.90;;
67037;SDS011;53940;53.204;6.590;2024-02-21T15:01:28;1.20;;;0.88;;
67037;SDS011;53940;53.204;6.590;2024-02-21T15:04:28;1.60;;;0.80;;
67037;SDS011;53940;53.204;6.590;2024-02-21T15:07:28;1.73;;;0.90;;
67037;SDS011;53940;53.204;6.590;2024-02-21T15:10:29;1.27;;;0.80;;
67037;SDS011;53940;53.204;6.590;2024-02-21T15:13:29;2.13;;;1.00;;
67037;SDS011;53940;53.204;6.590;2024-02-21T15:16:30;1.70;;;0.80;;
67037;SDS011;53940;53.204;6.590;2024-02-21T15:19:30;1.42;;;0.90;;
67037;SDS011;53940;53.204;6.590;2024-02-21T15:22:33;1.38;;;0.80;;
67037;SDS011;53940;53.204;6.590;2024-02-21T15:25:34;1.90;;;0.75;;
67037;SDS011;53940;53.204;6.590;2024-02-21T15:28:34;1.63;;;0.88;;
67037;SDS011;53940;53.204;6.590;2024-02-21T15:31:34;1.73;;;0.80;;
67037;SDS011;53940;53.204;6.590;2024-02-21T15:34:35;1.50;;;0.90;;
67037;SDS011;53940;53.204;6.590;2024-02-21T15:37:35;2.80;;;1.17;;
67037;SDS011;53940;53.204;6.590;2024-02-21T15:40:36;1.30;;;0.77;;
67037;SDS011;53940;53.204;6.590;2024-02-21T15:43:36;2.75;;;1.08;;
67037;SDS011;53940;53.204;6.590;2024-02-21T15:46:38;1.20;;;0.80;;
67037;SDS011;53940;53.204;6.590;2024-02-21T15:49:38;2.13;;;0.98;;
67037;SDS011;53940;53.204;6.590;2024-02-21T15:52:38;1.85;;;0.90;;
67037;SDS011;53940;53.204;6.590;2024-02-21T15:55:39;1.50;;;0.70;;
67037;SDS011;53940;53.204;6.590;2024-02-21T15:58:40;1.38;;;0.80;;
67037;SDS011;53940;53.204;6.590;2024-02-21T16:01:40;1.38;;;0.77;;
67037;SDS011;53940;53.204;6.590;2024-02-21T16:04:43;2.85;;;1.00;;
67037;SDS011;53940;53.204;6.590;2024-02-21T16:07:43;1.25;;;0.70;;
67037;SDS011;53940;53.204;6.590;2024-02-21T16:10:43;3.03;;;0.90;;
67037;SDS011;53940;53.204;6.590;2024-02-21T16:13:44;1.95;;;0.90;;
67037;SDS011;53940;53.204;6.590;2024-02-21T16:16:46;2.88;;;0.80;;
67037;SDS011;53940;53.204;6.590;2024-02-21T16:19:48;1.10;;;0.70;;
67037;SDS011;53940;53.204;6.590;2024-02-21T16:22:49;1.98;;;0.73;;
67037;SDS011;53940;53.204;6.590;2024-02-21T16:25:49;1.90;;;0.80;;
67037;SDS011;53940;53.204;6.590;2024-02-21T16:28:50;1.75;;;0.80;;
67037;SDS011;53940;53.204;6.590;2024-02-21T16:31:50;1.85;;;0.80;;
67037;SDS011;53940;53.204;6.590;2024-02-21T16:34:50;1.25;;;0.70;;
67037;SDS011;53940;53.204;6.590;2024-02-21T16:37:51;1.25;;;0.80;;
67037;SDS011;53940;53.204;6.590;2024-02-21T16:40:51;1.52;;;0.80;;
67037;SDS011;53940;53.204;6.590;2024-02-21T16:43:52;1.50;;;0.68;;
67037;SDS011;53940;53.204;6.590;2024-02-21T16:46:53;1.38;;;0.70;;
67037;SDS011;53940;53.204;6.590;2024-02-21T16:49:53;2.00;;;0.70;;
67037;SDS011;53940;53.204;6.590;2024-02-21T16:52:53;2.75;;;0.70;;
67037;SDS011;53940;53.204;6.590;2024-02-21T16:55:54;1.52;;;0.70;;
67037;SDS011;53940;53.204;6.590;2024-02-21T16:58:55;1.30;;;0.60;;
67037;SDS011;53940;53.204;6.590;2024-02-21T17:01:55;1.20;;;0.68;;
67037;SDS011;53940;53.204;6.590;2024-02-21T17:04:55;2.45;;;0.77;;
67037;SDS011;53940;53.204;6.590;2024-02-21T17:07:55;0.88;;;0.60;;
67037;SDS011;53940;53.204;6.590;2024-02-21T17:10:56;1.73;;;0.80;;
67037;SDS011;53940;53.204;6.590;2024-02-21T17:13:56;1.38;;;0.60;;
67037;SDS011;53940;53.204;6.590;2024-02-21T17:16:57;1.60;;;0.60;;
67037;SDS011;53940;53.204;6.590;2024-02-21T17:19:57;1.33;;;0.70;;
67037;SDS011;53940;53.204;6.590;2024-02-21T17:22:58;1.30;;;0.88;;
67037;SDS011;53940;53.204;6.590;2024-02-21T17:25:58;1.67;;;0.70;;
67037;SDS011;53940;53.204;6.590;2024-02-21T17:28:58;1.75;;;0.70;;
67037;SDS011;53940;53.204;6.590;2024-02-21T17:32:00;2.53;;;0.80;;
67037;SDS011;53940;53.204;6.590;2024-02-21T17:35:01;1.88;;;0.80;;
67037;SDS011;53940;53.204;6.590;2024-02-21T17:38:05;1.88;;;0.70;;
67037;SDS011;53940;53.204;6.590;2024-02-21T17:41:06;1.85;;;0.70;;
67037;SDS011;53940;53.204;6.590;2024-02-21T17:44:06;1.45;;;0.60;;
67037;SDS011;53940;53.204;6.590;2024-02-21T17:47:07;2.40;;;0.95;;
67037;SDS011;53940;53.204;6.590;2024-02-21T17:50:07;1.73;;;0.70;;
67037;SDS011;53940;53.204;6.590;2024-02-21T17:53:07;1.83;;;0.60;;
67037;SDS011;53940;53.204;6.590;2024-02-21T17:56:08;1.33;;;0.70;;
67037;SDS011;53940;53.204;6.590;2024-02-21T17:59:12;2.08;;;0.80;;
67037;SDS011;53940;53.204;6.590;2024-02-21T18:02:12;1.20;;;0.60;;
67037;SDS011;53940;53.204;6.590;2024-02-21T18:05:19;1.85;;;0.80;;
67037;SDS011;53940;53.204;6.590;2024-02-21T18:08:21;2.03;;;0.68;;
67037;SDS011;53940;53.204;6.590;2024-02-21T18:11:21;1.50;;;0.60;;
67037;SDS011;53940;53.204;6.590;2024-02-21T18:14:22;1.38;;;0.75;;